Carlsbad Caverns National Park, NM

5:26 PM MDT on July 22, 2014 (GMT -0600)
KNMCARLS3 Elev 3158 ft | 32.43 °N, 104.25 °W | Change Station

Current weather conditions updated 49 seconds ago

Clear
Clear
99.6 °F
Feels Like 100 °F
N
4.0
Wind Variable Wind from ESE
Gusts 8.0 mph

Tomorrow is forecast to be nearly the same temperature as today.

Today
High -- | Low -- °F
--% Chance of Precip.
Yesterday
High -- | Low -- °F
Precip. -- in
6:05 AM 8:01 PM
Waning Crescent, 14% visible
Pressure 29.87 in
Visibility 10.0 miles
Clouds Few 10000 ft
Heat Index 100 °F
Dew Point 59 °F
Humidity 26%
Rainfall 0.00 in
Snow Depth Not available.
UV 5 out of 12
Pollen 4.90 out of 12
Air Quality Not available.
Flu Activity Not available.
METAR KCNM 222253Z AUTO 15013G20KT 10SM FEW100 37/11 A3007 RMK AO2 SLP115 T03720111

More Conditions Fewer Conditions

Pressure 29.87 in
Visibility 10.0 miles
Clouds Few 10000 ft
Heat Index 100 °F
Dew Point 59 °F
Humidity 26%
Rainfall 0.00 in
Snow Depth Not available.
UV 5 out of 12
Pollen 4.90 out of 12
Air Quality Not available.
Flu Activity Not available.
METAR KCNM 222253Z AUTO 15013G20KT 10SM FEW100 37/11 A3007 RMK AO2 SLP115 T03720111

More Conditions Fewer Conditions

10-Day Weather Forecast

Almanac

Astronomy

Jul. 22, 2014 Rise Set
Actual Time 6:05 AM MDT 8:01 PM MDT
Civil Twilight 5:37 AM MDT 8:28 PM MDT
Nautical Twilight 5:04 AM MDT 9:01 PM MDT
Astronomical Twilight 4:28 AM MDT 9:37 PM MDT
Moon 2:37 AM MDT 4:42 PM MDT
Length of Visible Light 14h 51m
Length of Day
13h 56m
Tomorrow will be 1m 14s shorter.
Waning Crescent, 14% of the Moon is Illuminated
Today
Waning Crescent
Jul 26
New
Aug 3
First Quarter
Aug 10
Full
Aug 17
Last Quarter

Today's Extremes

State Highs State Lows

Community

WunderPhotos

Upload Photos

1,736,391 photos uploaded!

Nearby

Snow Depth

Station Depth Elevation
Sierra Blanca 1 in 10280 ft
Wesner Springs 0 in 11120 ft
Santa Fe 1 in 11445 ft
Silver Creek Divide 0 in 9000 ft

Earthquake Activity

City Distance Mag. Time & Date
No recent earthquake activity has been reported nearby.
Minimum magnitude displayed is 2.5.

Coastal Water Temperatures

Place Temperature
No Stations Reporting

Nearby Weather Stations

Station Location Temp. Heat Index Dew Point Humidity Wind Precip. Elev Updated Type
Carlsbad, NM 99.6 °F 100 °F 59 °F 26% ESE  at  4.0 mph 0.00 in / hr 3158 ft 5:25 PM MDT Normal
Ridgecrest Subdivision, Carlsbad, NM 95.0 °F 92 °F 52 °F 24% NE  at  19.0 mph 0.00 in / hr 3200 ft 5:26 PM MDT Rapid Fire
RAWS BATDRAW NM, Whites City, NM 94 °F 92 °F 56 °F 28% ESE  at  12 mph 0.00 in / hr 4424 ft 3:52 PM MDT MADIS

Show More Stations Show Fewer Stations